Redding, CA (96001)

3:58 PM PDT on September 19, 2014 (GMT -0700)
Dartmouth Drive | Change Station
CLOSE
Current Station
Personal Weather Station
Location: Redding, CA
Elevation: 768 ft
Nearby Weather Stations

Elev 768 ft 40.56 °N, 122.43 °W | Updated 3 minutes ago

Clear
Clear
99.5 °F
Feels Like 96 °F
N
2.7
Wind Variable Wind from East

Today
High -- | Low -- °F
--% Chance of Precip.
Yesterday
High -- | Low -- °F
Precip. -- in
6:54 AM 7:11 PM
Waning Crescent, 16% visible
Pressure 29.74 in
Visibility 10.0 miles
Clouds Clear
Heat Index 96 °F
Dew Point 48 °F
Humidity 18%
Rainfall 0.00 in
Snow Depth 0 in , 0 in , 1 in
UV 6 out of 12
Pollen 6.70 out of 12
Air Quality Not available.
Flu Activity Not available.
METAR KRDD 192153Z 36010KT 10SM CLR 37/06 A2975 RMK AO2 SLP069 T03720056

More Conditions Fewer Conditions

Pressure 29.74 in
Visibility 10.0 miles
Clouds Clear
Heat Index 96 °F
Dew Point 48 °F
Humidity 18%
Rainfall 0.00 in
Snow Depth 0 in , 0 in , 1 in
UV 6 out of 12
Pollen 6.70 out of 12
Air Quality Not available.
Flu Activity Not available.
METAR KRDD 192153Z 36010KT 10SM CLR 37/06 A2975 RMK AO2 SLP069 T03720056

More Conditions Fewer Conditions

10-Day Weather Forecast

Almanac

Astronomy

Sep. 19, 2014 Rise Set
Actual Time 6:54 AM PDT 7:11 PM PDT
Civil Twilight 6:27 AM PDT 7:38 PM PDT
Nautical Twilight 5:55 AM PDT 8:10 PM PDT
Astronomical Twilight 5:22 AM PDT 8:43 PM PDT
Moon 2:43 AM PDT 4:44 PM PDT
Length of Visible Light 13h 11m
Length of Day
12h 17m
Tomorrow will be 2m 40s shorter.
Waning Crescent, 16% of the Moon is Illuminated
Today
Waning Crescent
Sep 24
New
Oct 1
First Quarter
Oct 8
Full
Oct 15
Last Quarter

Today's Extremes

State Highs State Lows

Community

WunderPhotos

Upload Photos

1,754,722 photos uploaded!

WunderBlogs® & News

By Dr. Jeff Masters
Director of Meteorology, Weather Underground
By Kari Strenfel
Meteorologist, Weather Underground
By Christopher C. Burt
Weather Historian, Weather Underground
September 19, 2014
September 19, 2014
September 19, 2014

Nearby

Snow Depth

Station Depth Elevation
Burnside Lake 0 in 8139 ft
Summit Meadow 0 in 9122 ft
Leavitt Meadows 0 in 7200 ft
Adin Mountain 1 in 6200 ft
CSS Lab 1 in 6900 ft

Earthquake Activity

City Distance Mag. Time & Date
The Geysers, California 125 miles 2.5 11:29 PM PDT
2014-09-17
Cobb, California 123 miles 2.7 1:23 PM PDT
2014-09-16
Minimum magnitude displayed is 2.5.

Coastal Water Temperatures

Place Temperature
No Stations Reporting

Nearby Weather Stations